Archival Weather

Tokyo Intl

Tokyo, Japan (RJTT)

Report from: Saturday, April 1, 2023 10:00 AM JST
Current time: Sunday, July 14, 2024 7:57 PM JST

Current weather – Weather history – Daily summaries
Weather forecast

Temperature18.0°C (64.4°F)
Dew point10.0°C (50.0°F)
Winds 8 kts (4.1 m/s, 9.2 mph) North-Northeast (30°)
Clouds Sky clear
Altimeter30.03 in.Hg (1017 mB)
Relative humidity60 %
Density altitude401 ft. (122 m)
Remarks Ceiling and visibility OK
No significant changes expected in the next two hours
Flight conditions Visual Meteorological Conditions
Raw dataRJTT 010100Z 03008KT CAVOK 18/10 Q1017 NOSIG RMK A3003
An error has occurred. This application may no longer respond until reloaded. Reload 🗙